createdAt,value
2019-05-23T00:01:17.817Z,11.76
2019-05-23T00:03:50.301Z,11.65
2019-05-23T00:06:24.222Z,11.40
2019-05-23T00:08:55.517Z,11.28
2019-05-23T00:11:29.913Z,11.28
2019-05-23T00:14:01.942Z,11.39
2019-05-23T00:16:32.148Z,11.45
2019-05-23T00:19:02.963Z,11.53
2019-05-23T00:21:33.345Z,11.67
2019-05-23T00:24:04.485Z,11.51
2019-05-23T00:26:36.281Z,11.44
2019-05-23T00:29:10.463Z,11.42
2019-05-23T00:31:41.539Z,11.49
2019-05-23T00:34:11.654Z,11.50
2019-05-23T00:36:42.174Z,11.54
2019-05-23T00:39:13.559Z,11.55
2019-05-23T00:41:43.850Z,11.51
2019-05-23T00:44:13.828Z,11.46
2019-05-23T00:46:44.913Z,11.31
2019-05-23T00:49:16.597Z,11.32
2019-05-23T00:51:46.869Z,11.53
2019-05-23T00:54:19.177Z,11.42
2019-05-23T00:56:49.924Z,11.51
2019-05-23T00:59:26.957Z,11.50
2019-05-23T01:01:53.959Z,11.42
2019-05-23T01:04:24.661Z,11.34
2019-05-23T01:06:56.292Z,11.28
2019-05-23T01:09:27.732Z,11.21
2019-05-23T01:12:01.290Z,11.29
2019-05-23T01:14:31.576Z,11.09
2019-05-23T01:17:02.025Z,11.22
2019-05-23T01:19:37.138Z,11.11
2019-05-23T01:22:14.404Z,11.14
2019-05-23T01:24:51.792Z,11.21
2019-05-23T01:27:22.139Z,11.17
2019-05-23T01:29:52.546Z,11.01
2019-05-23T01:32:24.831Z,10.92
2019-05-23T01:34:57.049Z,10.93
2019-05-23T01:37:26.717Z,10.93
2019-05-23T01:39:57.502Z,10.93
2019-05-23T01:42:30.864Z,10.96
2019-05-23T01:45:03.618Z,10.90
2019-05-23T01:47:33.873Z,10.84
2019-05-23T01:50:04.690Z,10.79
2019-05-23T01:52:34.991Z,10.67
2019-05-23T01:55:06.522Z,10.78
2019-05-23T01:57:36.336Z,10.85
2019-05-23T02:00:11.447Z,10.75
2019-05-23T02:02:43.724Z,10.59
2019-05-23T02:05:14.472Z,10.37
2019-05-23T02:07:44.065Z,10.39
2019-05-23T02:10:14.317Z,10.36
2019-05-23T02:12:45.975Z,10.27
2019-05-23T02:15:16.921Z,10.28
2019-05-23T02:17:47.720Z,10.19
2019-05-23T02:20:20.413Z,10.18
2019-05-23T02:22:50.493Z,10.04
2019-05-23T02:25:21.886Z,9.92
2019-05-23T02:27:57.774Z,9.94
2019-05-23T02:30:34.560Z,9.94
2019-05-23T02:33:00.311Z,9.90
2019-05-23T02:35:29.941Z,9.90
2019-05-23T02:38:18.085Z,9.90
2019-05-23T02:40:49.689Z,9.97
2019-05-23T02:43:23.484Z,9.82
2019-05-23T02:46:01.083Z,9.79
2019-05-23T02:48:46.652Z,9.70
2019-05-23T02:51:26.497Z,9.54
2019-05-23T02:53:58.647Z,9.58
2019-05-23T02:56:34.648Z,9.47
2019-05-23T02:59:16.187Z,9.48
2019-05-23T03:02:35.797Z,8.99
2019-05-23T03:05:10.589Z,9.30
2019-05-23T03:07:40.769Z,9.23
2019-05-23T03:10:11.176Z,9.36
2019-05-23T03:12:43.925Z,9.42
2019-05-23T03:15:16.612Z,9.21
2019-05-23T03:17:51.826Z,9.06
2019-05-23T03:20:23.044Z,8.73
2019-05-23T03:23:06.339Z,8.73
2019-05-23T03:25:40.766Z,8.88
2019-05-23T03:28:14.168Z,8.95
2019-05-23T03:30:48.665Z,9.11
2019-05-23T03:33:19.199Z,9.08
2019-05-23T03:35:51.427Z,8.99
2019-05-23T03:38:22.152Z,9.11
2019-05-23T03:40:52.474Z,9.08
2019-05-23T03:43:22.736Z,9.25
2019-05-23T03:45:54.051Z,9.10
2019-05-23T03:48:24.397Z,9.25
2019-05-23T03:50:55.643Z,9.42
2019-05-23T03:53:32.177Z,9.47
2019-05-23T03:56:04.411Z,9.35
2019-05-23T03:58:38.016Z,9.48
2019-05-23T04:01:10.919Z,9.65
2019-05-23T04:03:42.765Z,9.64
2019-05-23T04:06:13.909Z,9.76
2019-05-23T04:08:43.567Z,9.83
2019-05-23T04:11:15.520Z,9.77
2019-05-23T04:13:45.372Z,9.70
2019-05-23T04:16:15.152Z,9.65
2019-05-23T04:18:44.838Z,9.99
2019-05-23T04:21:15.825Z,10.03
2019-05-23T04:23:45.886Z,10.23
2019-05-23T04:26:15.864Z,10.16
2019-05-23T04:28:45.360Z,10.25
2019-05-23T04:31:14.954Z,10.22
2019-05-23T04:33:45.913Z,10.24
2019-05-23T04:36:17.001Z,10.22
2019-05-23T04:38:47.364Z,10.51
2019-05-23T04:41:16.972Z,10.64
2019-05-23T04:43:46.554Z,10.77
2019-05-23T04:46:16.137Z,10.84
2019-05-23T04:48:47.839Z,10.90
2019-05-23T04:51:17.661Z,11.03
2019-05-23T04:53:47.549Z,11.14
2019-05-23T04:56:17.248Z,11.36
2019-05-23T04:58:48.064Z,11.51
2019-05-23T05:01:20.699Z,11.67
2019-05-23T05:03:52.874Z,11.84
2019-05-23T05:06:22.727Z,12.01
2019-05-23T05:08:55.698Z,12.14
2019-05-23T05:11:30.183Z,12.25
2019-05-23T05:13:57.339Z,12.28
2019-05-23T05:16:27.194Z,12.33
2019-05-23T05:18:56.966Z,12.63
2019-05-23T05:21:26.562Z,12.75
2019-05-23T05:23:56.157Z,12.81
2019-05-23T05:26:25.871Z,13.04
2019-05-23T05:28:56.202Z,13.25
2019-05-23T05:31:25.909Z,13.30
2019-05-23T05:33:56.473Z,13.48
2019-05-23T05:36:26.512Z,13.50
2019-05-23T05:38:56.327Z,13.85
2019-05-23T05:41:26.947Z,14.09
2019-05-23T05:43:56.848Z,14.30
2019-05-23T05:46:26.664Z,14.26
2019-05-23T05:48:57.851Z,14.36
2019-05-23T05:51:28.533Z,14.43
2019-05-23T05:53:59.056Z,14.68
2019-05-23T05:56:29.904Z,14.90
2019-05-23T05:58:59.489Z,15.04
2019-05-23T06:01:34.097Z,15.36
2019-05-23T06:04:01.734Z,15.35
2019-05-23T06:06:35.881Z,15.39
2019-05-23T06:09:12.438Z,15.73
2019-05-23T06:11:42.278Z,15.78
2019-05-23T06:14:12.091Z,15.82
2019-05-23T06:16:44.998Z,16.05
2019-05-23T06:19:15.240Z,16.07
2019-05-23T06:21:46.147Z,16.00
2019-05-23T06:24:16.746Z,16.12
2019-05-23T06:26:46.890Z,16.46
2019-05-23T06:29:16.621Z,16.38
2019-05-23T06:31:47.247Z,16.38
2019-05-23T06:34:17.849Z,16.37
2019-05-23T06:36:47.519Z,16.66
2019-05-23T06:39:18.105Z,16.60
2019-05-23T06:41:48.323Z,16.91
2019-05-23T06:44:19.924Z,17.01
2019-05-23T06:46:50.131Z,17.07
2019-05-23T06:49:19.749Z,17.02
2019-05-23T06:51:49.405Z,17.36
2019-05-23T06:54:19.111Z,17.50
2019-05-23T06:56:48.758Z,17.55
2019-05-23T06:59:18.853Z,17.73
2019-05-23T07:01:51.291Z,17.92
2019-05-23T07:04:22.666Z,18.07
2019-05-23T07:06:52.846Z,18.24
2019-05-23T07:09:23.424Z,18.42
2019-05-23T07:11:56.922Z,18.20
2019-05-23T07:14:27.932Z,17.98
2019-05-23T07:16:59.561Z,18.03
2019-05-23T07:19:29.332Z,18.19
2019-05-23T07:21:59.037Z,18.39
2019-05-23T07:24:29.250Z,18.35
2019-05-23T07:26:58.976Z,18.64
2019-05-23T07:29:31.478Z,18.91
2019-05-23T07:32:05.120Z,19.13
2019-05-23T07:34:35.766Z,19.32
2019-05-23T07:37:06.631Z,18.88
2019-05-23T07:39:36.755Z,18.96
2019-05-23T07:42:06.611Z,19.24
2019-05-23T07:44:47.953Z,19.29
2019-05-23T07:47:10.506Z,18.95
2019-05-23T07:49:40.303Z,18.57
2019-05-23T07:52:09.915Z,19.08
2019-05-23T07:54:49.830Z,19.41
2019-05-23T07:57:20.098Z,19.82
2019-05-23T07:59:50.070Z,19.86
2019-05-23T08:02:28.753Z,20.17
2019-05-23T08:04:59.125Z,20.35
2019-05-23T08:07:32.851Z,20.29
2019-05-23T08:10:02.012Z,20.15
2019-05-23T08:12:32.227Z,20.31
2019-05-23T08:15:01.881Z,19.99
2019-05-23T08:17:33.487Z,20.15
2019-05-23T08:20:03.299Z,20.36
2019-05-23T08:22:33.186Z,20.71
2019-05-23T08:25:02.767Z,20.74
2019-05-23T08:27:34.412Z,20.58
2019-05-23T08:30:07.626Z,20.45
2019-05-23T08:32:37.246Z,20.61
2019-05-23T08:35:08.231Z,20.68
2019-05-23T08:37:38.844Z,21.17
2019-05-23T08:40:10.720Z,21.34
2019-05-23T08:42:40.519Z,21.17
2019-05-23T08:45:11.784Z,20.87
2019-05-23T08:47:41.710Z,20.83
2019-05-23T08:50:12.506Z,21.27
2019-05-23T08:52:42.258Z,21.68
2019-05-23T08:55:21.666Z,21.78
2019-05-23T08:57:54.617Z,21.82
2019-05-23T09:00:29.706Z,21.76
2019-05-23T09:03:00.502Z,22.23
2019-05-23T09:05:31.989Z,22.38
2019-05-23T09:08:02.070Z,22.56
2019-05-23T09:10:35.994Z,22.59
2019-05-23T09:13:07.065Z,22.87
2019-05-23T09:15:37.563Z,23.20
2019-05-23T09:18:08.114Z,23.26
2019-05-23T09:20:38.381Z,23.12
2019-05-23T09:23:09.320Z,22.66
2019-05-23T09:25:40.007Z,22.43
2019-05-23T09:28:11.708Z,22.75
2019-05-23T09:30:41.371Z,22.82
2019-05-23T09:33:11.795Z,22.99
2019-05-23T09:35:41.830Z,23.29
2019-05-23T09:38:13.327Z,23.71
2019-05-23T09:40:44.092Z,24.08
2019-05-23T09:43:14.070Z,24.26
2019-05-23T09:45:43.791Z,24.38
2019-05-23T09:48:20.646Z,23.86
2019-05-23T09:50:50.154Z,23.47
2019-05-23T09:53:19.766Z,23.81
2019-05-23T09:55:51.292Z,24.30
2019-05-23T09:58:20.914Z,24.57
2019-05-23T10:00:50.742Z,24.90
2019-05-23T10:03:21.107Z,24.93
2019-05-23T10:05:51.800Z,24.34
2019-05-23T10:08:21.778Z,24.76
2019-05-23T10:10:53.164Z,25.14
2019-05-23T10:13:38.620Z,24.72
2019-05-23T10:16:03.058Z,24.82
2019-05-23T10:18:33.121Z,24.98
2019-05-23T10:21:02.833Z,25.23
2019-05-23T10:23:34.092Z,25.38
2019-05-23T10:26:03.963Z,25.62
2019-05-23T10:28:33.760Z,25.94
2019-05-23T10:31:07.311Z,26.14
2019-05-23T10:33:37.040Z,25.92
2019-05-23T10:36:08.912Z,25.96
2019-05-23T10:38:41.593Z,24.87
2019-05-23T10:41:11.257Z,25.34
2019-05-23T10:43:41.071Z,25.11
2019-05-23T10:46:12.080Z,25.25
2019-05-23T10:48:42.044Z,24.97
2019-05-23T10:51:12.029Z,24.50
2019-05-23T10:53:45.902Z,24.99
2019-05-23T10:56:20.376Z,24.74
2019-05-23T10:58:48.193Z,25.23
2019-05-23T11:01:21.279Z,26.03
2019-05-23T11:03:51.132Z,26.57
2019-05-23T11:06:21.810Z,26.77
2019-05-23T11:08:51.586Z,26.68
2019-05-23T11:11:21.703Z,26.02
2019-05-23T11:13:51.655Z,25.59
2019-05-23T11:16:26.077Z,24.88
2019-05-23T11:18:55.742Z,24.71
2019-05-23T11:21:25.953Z,24.89
2019-05-23T11:23:56.451Z,25.23
2019-05-23T11:26:26.112Z,24.27
2019-05-23T11:28:57.367Z,24.24
2019-05-23T11:31:31.708Z,25.44
2019-05-23T11:34:03.340Z,25.27
2019-05-23T11:36:36.039Z,24.45
2019-05-23T11:39:05.778Z,24.53
2019-05-23T11:41:38.710Z,24.80
2019-05-23T11:44:08.386Z,24.51
2019-05-23T11:46:42.008Z,25.09
2019-05-23T11:49:11.984Z,25.72
2019-05-23T11:51:43.363Z,25.97
2019-05-23T11:54:13.092Z,26.07
2019-05-23T11:56:43.228Z,26.54
2019-05-23T11:59:13.520Z,26.74
2019-05-23T12:01:51.389Z,26.88
2019-05-23T12:04:22.196Z,27.08
2019-05-23T12:07:03.818Z,25.91
2019-05-23T12:09:33.767Z,25.72
2019-05-23T12:12:03.717Z,25.36
2019-05-23T12:14:33.985Z,25.67
2019-05-23T12:17:05.466Z,25.11
2019-05-23T12:19:35.982Z,25.79
2019-05-23T12:22:06.148Z,25.83
2019-05-23T12:24:36.710Z,25.49
2019-05-23T12:27:06.818Z,25.99
2019-05-23T12:29:38.963Z,26.62
2019-05-23T12:32:10.891Z,27.06
2019-05-23T12:34:40.504Z,27.54
2019-05-23T12:37:19.180Z,27.23
2019-05-23T12:39:43.810Z,26.64
2019-05-23T12:42:13.465Z,26.49
2019-05-23T12:44:43.299Z,25.68
2019-05-23T12:47:14.673Z,25.51
2019-05-23T12:49:46.059Z,25.52
2019-05-23T12:52:16.922Z,26.29
2019-05-23T12:54:47.128Z,26.50
2019-05-23T12:57:16.784Z,26.61
2019-05-23T12:59:47.106Z,26.93
2019-05-23T13:02:18.496Z,26.17
2019-05-23T13:04:48.468Z,26.06
2019-05-23T13:07:34.620Z,25.82
2019-05-23T13:09:50.609Z,26.16
2019-05-23T13:12:21.318Z,25.83
2019-05-23T13:14:53.506Z,26.36
2019-05-23T13:17:22.309Z,27.00
2019-05-23T13:19:52.109Z,26.60
2019-05-23T13:22:22.891Z,26.14
2019-05-23T13:24:53.545Z,26.11
2019-05-23T13:27:23.445Z,26.67
2019-05-23T13:29:53.400Z,26.64
2019-05-23T13:32:23.132Z,26.47
2019-05-23T13:34:52.673Z,27.02
2019-05-23T13:37:24.007Z,26.27
2019-05-23T13:39:53.780Z,25.64
2019-05-23T13:42:23.790Z,25.39
2019-05-23T13:44:53.751Z,26.35
2019-05-23T13:47:23.814Z,27.03
2019-05-23T13:49:53.840Z,27.64
2019-05-23T13:52:23.580Z,27.26
2019-05-23T13:54:53.633Z,26.55
2019-05-23T13:57:23.366Z,25.73
2019-05-23T13:59:53.993Z,25.28
2019-05-23T14:02:24.154Z,26.02
2019-05-23T14:04:54.258Z,26.58
2019-05-23T14:07:25.753Z,26.41
2019-05-23T14:09:55.471Z,26.94
2019-05-23T14:12:26.033Z,26.98
2019-05-23T14:14:57.926Z,27.09
2019-05-23T14:17:27.410Z,27.43
2019-05-23T14:19:57.257Z,27.56
2019-05-23T14:22:27.690Z,27.80
2019-05-23T14:24:57.439Z,27.85
2019-05-23T14:27:40.898Z,27.79
2019-05-23T14:30:18.816Z,27.47
2019-05-23T14:32:52.921Z,27.45
2019-05-23T14:35:24.201Z,27.55
2019-05-23T14:37:55.468Z,27.30
2019-05-23T14:40:27.948Z,27.45
2019-05-23T14:42:59.345Z,27.55
2019-05-23T14:45:43.956Z,27.70
2019-05-23T14:48:31.488Z,27.40
2019-05-23T14:51:06.688Z,27.25
2019-05-23T14:53:43.636Z,27.43
2019-05-23T14:56:14.622Z,27.42
2019-05-23T14:58:45.103Z,27.70
2019-05-23T15:01:15.653Z,27.60
2019-05-23T15:03:46.032Z,27.85
2019-05-23T15:06:15.826Z,27.89
2019-05-23T15:08:51.157Z,27.77
2019-05-23T15:11:17.338Z,26.91
2019-05-23T15:13:47.253Z,26.47
2019-05-23T15:16:17.423Z,26.77
2019-05-23T15:18:48.632Z,26.95
2019-05-23T15:21:18.579Z,27.32
2019-05-23T15:23:48.175Z,27.58
2019-05-23T15:26:22.821Z,27.42
2019-05-23T15:28:49.209Z,27.52
2019-05-23T15:31:19.840Z,27.51
2019-05-23T15:33:53.023Z,27.47
2019-05-23T15:36:22.661Z,27.35
2019-05-23T15:39:08.141Z,26.93
2019-05-23T15:41:23.857Z,27.15
2019-05-23T15:43:53.504Z,26.88
2019-05-23T15:46:23.748Z,26.55
2019-05-23T15:48:54.371Z,26.59
2019-05-23T15:51:28.770Z,26.26
2019-05-23T15:54:08.873Z,26.50
2019-05-23T15:56:40.135Z,26.34
2019-05-23T15:59:14.948Z,26.46
2019-05-23T16:01:46.577Z,26.51
2019-05-23T16:04:24.289Z,26.66
2019-05-23T16:06:55.055Z,26.41
2019-05-23T16:09:29.948Z,26.33
2019-05-23T16:11:59.097Z,26.59
2019-05-23T16:14:29.096Z,26.73
2019-05-23T16:16:58.823Z,25.96
2019-05-23T16:19:31.440Z,25.70
2019-05-23T16:22:02.386Z,25.77
2019-05-23T16:24:32.039Z,25.85
2019-05-23T16:27:06.044Z,25.94
2019-05-23T16:29:37.159Z,25.56
2019-05-23T16:32:06.894Z,25.41
2019-05-23T16:34:38.791Z,25.15
2019-05-23T16:37:10.031Z,25.41
2019-05-23T16:39:47.406Z,25.56
2019-05-23T16:42:13.375Z,25.80
2019-05-23T16:44:42.962Z,25.87
2019-05-23T16:47:12.597Z,26.07
2019-05-23T16:49:42.497Z,25.51
2019-05-23T16:52:12.377Z,25.24
2019-05-23T16:54:43.981Z,25.04
2019-05-23T16:57:30.722Z,25.22
2019-05-23T17:00:20.790Z,25.62
2019-05-23T17:02:51.062Z,25.64
2019-05-23T17:05:26.670Z,25.31
2019-05-23T17:08:04.079Z,25.31
2019-05-23T17:10:36.496Z,25.08
2019-05-23T17:13:12.297Z,24.84
2019-05-23T17:15:49.466Z,25.17
2019-05-23T17:18:36.737Z,25.18
2019-05-23T17:21:08.090Z,24.97
2019-05-23T17:23:39.485Z,24.84
2019-05-23T17:26:20.707Z,25.06
2019-05-23T17:28:52.000Z,25.14
2019-05-23T17:31:25.639Z,25.00
2019-05-23T17:33:59.159Z,25.22
2019-05-23T17:36:28.855Z,24.91
2019-05-23T17:38:58.685Z,25.00
2019-05-23T17:41:30.752Z,24.79
2019-05-23T17:44:00.595Z,24.71
2019-05-23T17:46:30.495Z,24.62
2019-05-23T17:49:00.175Z,24.19
2019-05-23T17:51:30.480Z,24.08
2019-05-23T17:54:00.224Z,23.86
2019-05-23T17:56:33.686Z,23.44
2019-05-23T17:59:03.425Z,23.81
2019-05-23T18:01:33.592Z,23.64
2019-05-23T18:04:06.218Z,23.44
2019-05-23T18:06:36.150Z,23.50
2019-05-23T18:09:09.907Z,23.79
2019-05-23T18:11:39.842Z,24.12
2019-05-23T18:14:10.865Z,23.67
2019-05-23T18:16:42.968Z,23.41
2019-05-23T18:19:12.751Z,23.52
2019-05-23T18:21:44.411Z,23.32
2019-05-23T18:24:15.013Z,23.32
2019-05-23T18:26:44.790Z,23.16
2019-05-23T18:29:14.991Z,23.41
2019-05-23T18:31:47.117Z,23.43
2019-05-23T18:34:16.828Z,23.35
2019-05-23T18:36:46.701Z,23.59
2019-05-23T18:39:17.459Z,23.27
2019-05-23T18:41:47.119Z,23.07
2019-05-23T18:44:17.963Z,23.26
2019-05-23T18:46:55.094Z,23.41
2019-05-23T18:49:26.161Z,22.91
2019-05-23T18:51:56.197Z,22.84
2019-05-23T18:54:25.970Z,22.82
2019-05-23T18:56:56.166Z,22.67
2019-05-23T18:59:26.041Z,22.47
2019-05-23T19:01:58.454Z,22.84
2019-05-23T19:04:28.513Z,22.82
2019-05-23T19:06:58.242Z,22.74
2019-05-23T19:09:28.304Z,22.71
2019-05-23T19:11:59.043Z,22.66
2019-05-23T19:14:28.720Z,22.74
2019-05-23T19:17:02.033Z,22.58
2019-05-23T19:19:32.910Z,22.56
2019-05-23T19:22:04.469Z,22.51
2019-05-23T19:24:34.933Z,22.44
2019-05-23T19:27:06.389Z,22.48
2019-05-23T19:29:36.355Z,22.38
2019-05-23T19:32:07.414Z,22.27
2019-05-23T19:34:37.281Z,22.01
2019-05-23T19:37:09.028Z,22.08
2019-05-23T19:39:40.030Z,21.89
2019-05-23T19:42:10.524Z,21.70
2019-05-23T19:44:40.711Z,21.51
2019-05-23T19:47:11.576Z,21.58
2019-05-23T19:49:41.272Z,21.59
2019-05-23T19:52:12.643Z,21.55
2019-05-23T19:54:42.886Z,21.22
2019-05-23T19:57:12.505Z,21.14
2019-05-23T19:59:42.194Z,20.94
2019-05-23T20:02:16.195Z,20.91
2019-05-23T20:04:53.639Z,20.81
2019-05-23T20:07:23.877Z,20.68
2019-05-23T20:09:55.515Z,20.54
2019-05-23T20:12:27.931Z,20.41
2019-05-23T20:14:57.746Z,20.46
2019-05-23T20:17:27.626Z,20.38
2019-05-23T20:19:57.611Z,20.35
2019-05-23T20:22:28.701Z,20.18
2019-05-23T20:24:59.618Z,20.14
2019-05-23T20:27:29.509Z,19.97
2019-05-23T20:29:59.240Z,20.05
2019-05-23T20:32:28.885Z,19.95
2019-05-23T20:34:58.550Z,19.78
2019-05-23T20:37:30.392Z,19.68
2019-05-23T20:40:00.207Z,19.60
2019-05-23T20:42:30.337Z,19.36
2019-05-23T20:45:00.414Z,19.32
2019-05-23T20:47:31.246Z,19.21
2019-05-23T20:50:01.436Z,19.22
2019-05-23T20:52:31.895Z,19.10
2019-05-23T20:55:01.830Z,19.02
2019-05-23T20:57:31.932Z,18.95
2019-05-23T21:00:01.911Z,18.99
2019-05-23T21:02:31.815Z,18.86
2019-05-23T21:05:01.746Z,18.49
2019-05-23T21:07:32.404Z,18.63
2019-05-23T21:10:02.110Z,18.75
2019-05-23T21:12:32.337Z,18.70
2019-05-23T21:15:02.205Z,18.49
2019-05-23T21:17:33.917Z,18.49
2019-05-23T21:20:04.383Z,18.51
2019-05-23T21:22:39.741Z,18.47
2019-05-23T21:25:09.568Z,18.31
2019-05-23T21:27:39.180Z,18.08
2019-05-23T21:30:10.673Z,18.02
2019-05-23T21:32:40.405Z,18.04
2019-05-23T21:35:10.075Z,18.04
2019-05-23T21:37:39.951Z,17.95
2019-05-23T21:40:33.733Z,17.77
2019-05-23T21:43:03.414Z,17.78
2019-05-23T21:45:33.123Z,17.71
2019-05-23T21:48:03.036Z,17.68
2019-05-23T21:50:33.075Z,17.71
2019-05-23T21:53:03.493Z,17.71
2019-05-23T21:55:42.364Z,17.55
2019-05-23T21:58:17.323Z,17.55
2019-05-23T22:01:06.615Z,17.21
2019-05-23T22:03:39.379Z,17.32
2019-05-23T22:06:13.779Z,17.08
2019-05-23T22:08:45.966Z,17.04
2019-05-23T22:11:16.165Z,16.88
2019-05-23T22:13:49.876Z,16.73
2019-05-23T22:16:19.541Z,16.80
2019-05-23T22:18:49.208Z,16.58
2019-05-23T22:21:19.099Z,16.73
2019-05-23T22:23:49.153Z,16.87
2019-05-23T22:26:21.820Z,16.82
2019-05-23T22:28:54.147Z,16.68
2019-05-23T22:31:24.736Z,16.54
2019-05-23T22:33:58.911Z,16.67
2019-05-23T22:36:28.587Z,16.87
2019-05-23T22:38:58.196Z,16.77
2019-05-23T22:41:28.380Z,16.79
2019-05-23T22:43:58.033Z,16.71
2019-05-23T22:46:29.408Z,16.49
2019-05-23T22:49:01.387Z,16.68
2019-05-23T22:51:31.593Z,16.66
2019-05-23T22:54:01.218Z,16.75
2019-05-23T22:56:30.941Z,16.77
2019-05-23T22:59:00.543Z,16.77
2019-05-23T23:01:31.638Z,16.76
2019-05-23T23:04:01.260Z,16.69
2019-05-23T23:06:31.391Z,16.62
2019-05-23T23:09:03.157Z,16.64
2019-05-23T23:11:34.715Z,16.47
2019-05-23T23:14:04.451Z,16.50
2019-05-23T23:16:34.328Z,16.53
2019-05-23T23:19:04.011Z,16.38
2019-05-23T23:21:33.610Z,16.36
2019-05-23T23:24:03.128Z,16.31
2019-05-23T23:26:32.700Z,16.46
2019-05-23T23:29:03.510Z,16.39
2019-05-23T23:31:33.520Z,16.33
2019-05-23T23:34:06.124Z,16.57
2019-05-23T23:36:35.979Z,16.44
2019-05-23T23:39:07.500Z,16.32
2019-05-23T23:41:37.210Z,16.29
2019-05-23T23:44:08.983Z,16.21
2019-05-23T23:46:56.632Z,16.08
2019-05-23T23:49:44.253Z,16.00
2019-05-23T23:52:31.906Z,15.94
2019-05-23T23:55:19.150Z,16.03
2019-05-23T23:58:00.023Z,16.14
